Airfield :
LOGIN :

Register | Disclaimer

   EN    FR    IT 

 










Legend :    VFR   Marginal VFR   IFR   Intensive IFR   Very Intensive IFR
Visi :
Ceiling :
>= 8 km
>= 3000ft
5 to 8 km
1000 to 3000 ft
1500m to 5 km
500 to 1000 ft
800 to 1500m
200 to 500 ft
< 800m
< 200 ft
Symbols :   Thunderstorms  Fog  Heavy snow  Heavy precipitations  Wind > 20 kt
SIGMETs :     Misc.  Thunderstorms  Icing  Turbulence  Mountain Waves  Volcanic Ashes







- Airport Elevation : 74 ft
- IATA code : LRH
- Download approach charts


LFBH - La Rochelle Ile de Ré

CURRENT METAR :
  • 240830Z AUTO 26004KT 220V320 9999 FEW023 21/14 Q1022 NOSIG

EXPIRED METARs :
  • 240800Z AUTO VRB03KT 9999 SCT021 20/15 Q1022 NOSIG
  • 240730Z AUTO 20004KT 140V310 CAVOK 20/15 Q1022 NOSIG
  • 240700Z AUTO 17005KT CAVOK 20/15 Q1022 NOSIG
  • 240630Z AUTO VRB03KT CAVOK 20/14 Q1022 NOSIG
  • 240600Z AUTO VRB01KT CAVOK 19/15 Q1022 NOSIG
  • 240530Z AUTO VRB02KT CAVOK 18/15 Q1022 NOSIG

TAF TAF LFBH
Valid from the 23 at 18:00 until the 24 at 18:00 UTC


231700Z 2318/2418 30016KT CAVOK
BECMG 2322/2324 32006KT
BECMG 2401/2403 BKN020
BECMG 2409/2411 30016KT
BECMG 2413/2415 CAVOK
ATIS : +33 5 46 00 13 92
No reported NOTAMs for that airfield.



MET'MAP, your aeronautical weather chart ! - Copyright ORBIFLY December 2007 - Disclaimer

ORBIFLY MET'MAP TEAM :

Programming & Development : Alexandra Zaïnal
Concept & Development : Baudouin d'Aumeries
Co-Development & Prog : Marc-Olivier Méhu
Technical & hardware support : Manuel Goepfert

Contact : metmap@orbifly.com




SOURCES & CREDITS :

   NOAA